Latest Weather Observations for Gatton

IDQ60901

Issued at 3:01 pm EST Friday 18 August 2017 (issued every 10 minutes, with the page automatically refreshed every 10 minutes)

About weather observations | Map of Brisbane area stations | Latest observations for Brisbane area | Other Formats
Station Details ID: 040082 Name: UNIVERSITY OF QUEENSLAND GATTON Lat: -27.54 Lon: 152.34 Height: 89.0 m
Data from the previous 72 hours. | See also: Recent months at Gatton
Date/Time
EST
Temp
°C
App
Temp
°C
Dew
Point
°C
Rel
Hum
%
Delta-T
°C
Wind Press
QNH
hPa
Press
MSL
hPa
Rain since
9am
mm
Dir  Spd
km/h
Gust
km/h
Spd
kts
Gust
kts
18/03:00pm 23.9 14.4 -3.4 16 11.7 W 37 57 20 31 - - 0.0
18/02:30pm 24.7 16.4 -2.0 17 11.9 WSW 32 50 17 27 - - 0.0
18/02:02pm 24.0 14.3 -2.5 17 11.6 W 39 57 21 31 - - 0.0
18/02:00pm 24.2 14.0 -3.2 16 11.8 W 41 57 22 31 - - 0.0
18/01:41pm 24.6 16.2 -1.3 18 11.6 W 33 52 18 28 - - 0.0
18/01:30pm 24.7 15.9 -1.2 18 11.7 W 35 50 19 27 - - 0.0
18/01:06pm 24.1 15.2 -1.7 18 11.5 WSW 35 56 19 30 - - 0.0
18/01:00pm 24.2 15.7 -1.6 18 11.5 WSW 33 50 18 27 - - 0.0
18/12:54pm 24.0 15.1 -1.8 18 11.4 WSW 35 54 19 29 - - 0.0
18/12:30pm 23.5 14.3 -1.4 19 11.1 W 37 50 20 27 - - 0.0
18/12:21pm 23.9 16.4 -1.1 19 11.2 W 28 50 15 27 - - 0.0
18/12:00pm 23.4 15.0 -0.8 20 10.9 W 33 43 18 23 - - 0.0
18/11:46am 23.9 16.5 -0.4 20 11.0 WSW 28 46 15 25 - - 0.0
18/11:30am 23.4 15.6 -0.8 20 10.9 WSW 30 46 16 25 - - 0.0
18/11:00am 23.3 14.9 -0.9 20 10.8 W 33 48 18 26 - - 0.0
18/10:43am 22.6 13.9 -0.8 21 10.4 W 35 56 19 30 - - 0.0
18/10:30am 22.4 14.7 -0.3 22 10.2 W 30 41 16 22 - - 0.0
18/10:00am 22.4 16.6 -0.3 22 10.2 W 20 32 11 17 - - 0.0
18/09:30am 20.9 15.0 -1.0 23 9.6 W 20 28 11 15 - - 0.0
18/09:00am 19.7 14.1 0.2 27 8.7 W 19 28 10 15 - - 0.0
18/08:30am 18.5 14.3 1.9 33 7.6 W 13 20 7 11 - - 0.0
18/08:00am 14.6 11.5 3.7 48 5.0 WSW 9 11 5 6 - - 0.0
18/07:30am 11.5 8.8 3.8 59 3.4 W 7 9 4 5 - - 0.0
18/07:00am 8.7 5.8 2.5 65 2.6 WNW 7 7 4 4 - - 0.0
18/06:30am 7.6 4.5 1.5 65 2.5 WSW 7 9 4 5 - - 0.0
18/06:00am 7.0 3.9 1.5 68 2.2 W 7 11 4 6 - - 0.0
18/05:30am 8.8 5.5 2.2 63 2.8 WSW 9 11 5 6 - - 0.0
18/05:00am 8.4 5.1 2.4 66 2.5 WSW 9 11 5 6 - - 0.0
18/04:30am 9.2 6.1 3.4 67 2.5 WSW 9 13 5 7 - - 0.0
18/04:00am 7.5 4.6 2.4 70 2.1 WSW 7 9 4 5 - - 0.0
18/03:30am 8.6 5.4 3.2 69 2.3 W 9 13 5 7 - - 0.0
18/03:00am 9.2 6.4 3.4 67 2.5 W 7 9 4 5 - - 0.0
18/02:30am 9.7 6.9 3.2 64 2.8 W 7 11 4 6 - - 0.0
18/02:00am 10.7 7.9 3.0 59 3.4 W 7 11 4 6 - - 0.0
18/01:30am 12.3 8.9 3.8 56 3.8 W 11 13 6 7 - - 0.0
18/01:00am 11.9 8.9 4.2 59 3.5 WNW 9 13 5 7 - - 0.0
18/12:30am 10.4 7.8 4.1 65 2.8 WNW 7 9 4 5 - - 0.0
18/12:00am 11.9 8.9 2.1 51 4.2 WNW 7 9 4 5 - - 0.0
 
Date/Time
EST
Temp
°C
App
Temp
°C
Dew
Point
°C
Rel
Hum
%
Delta-T
°C
Wind Press
QNH
hPa
Press
MSL
hPa
Rain since
9am
mm
Dir  Spd
km/h
Gust
km/h
Spd
kts
Gust
kts
17/11:30pm 15.4 12.0 3.9 46 5.3 WNW 11 13 6 7 - - 0.0
17/11:00pm 17.6 14.2 4.2 41 6.3 WNW 11 15 6 8 - - 0.0
17/10:30pm 17.4 14.5 4.7 43 6.1 W 9 13 5 7 - - 0.0
17/10:00pm 15.9 13.6 5.5 50 5.0 WNW 7 13 4 7 - - 0.0
17/09:30pm 16.6 14.2 5.3 47 5.4 W 7 9 4 5 - - 0.0
17/09:00pm 19.3 16.6 5.7 41 6.7 WNW 9 13 5 7 - - 0.0
17/08:30pm 21.5 19.0 6.6 38 7.6 WNW 9 17 5 9 - - 0.0
17/08:00pm 21.3 18.9 7.2 40 7.3 W 9 15 5 8 - - 0.0
17/07:30pm 19.9 17.9 7.3 44 6.4 WSW 7 7 4 4 - - 0.0
17/07:00pm 22.2 19.8 7.2 38 7.8 WSW 9 13 5 7 - - 0.0
17/06:30pm 23.5 21.1 7.2 35 8.5 W 9 11 5 6 - - 0.0
17/06:00pm 25.0 22.4 7.6 33 9.2 W 11 17 6 9 - - 0.0
17/05:30pm 26.7 23.3 7.7 30 10.2 W 15 24 8 13 - - 0.0
17/05:00pm 28.3 24.1 7.5 27 11.2 W 19 30 10 16 - - 0.0
17/04:30pm 29.4 25.3 7.9 26 11.7 W 19 28 10 15 - - 0.0
17/04:00pm 30.4 25.3 7.6 24 12.5 W 24 39 13 21 - - 0.0
17/03:30pm 31.0 25.9 7.5 23 12.9 WSW 24 39 13 21 - - 0.0
17/03:00pm 31.0 25.1 7.5 23 12.9 W 28 41 15 22 - - 0.0
17/02:30pm 31.8 26.0 8.1 23 13.2 W 28 43 15 23 - - 0.0
17/02:00pm 31.8 25.9 7.5 22 13.4 W 28 39 15 21 - - 0.0
17/01:30pm 31.2 24.8 7.0 22 13.2 WNW 30 50 16 27 - - 0.0
17/01:08pm 31.2 25.3 7.6 23 13.0 W 28 46 15 25 - - 0.0
17/01:00pm 32.0 26.8 8.9 24 13.0 W 26 44 14 24 - - 0.0
17/12:30pm 31.3 26.7 8.3 24 12.8 W 22 32 12 17 - - 0.0
17/12:00pm 30.3 26.2 8.7 26 12.0 W 20 30 11 16 - - 0.0
17/11:30am 29.7 26.5 11.2 31 10.7 W 19 26 10 14 - - 0.0
17/11:00am 28.9 25.9 10.6 32 10.4 W 17 24 9 13 - - 0.0
17/10:30am 27.8 24.9 10.9 35 9.6 WSW 17 22 9 12 - - 0.0
17/10:00am 26.8 24.1 10.5 36 9.2 WNW 15 20 8 11 - - 0.0
17/09:30am 25.5 24.6 12.7 45 7.4 N 9 13 5 7 - - 0.0
17/09:00am 24.1 23.7 13.0 50 6.4 N 7 11 4 6 - - 0.0
17/08:30am 21.8 20.8 12.4 55 5.3 N 9 11 5 6 - - 0.0
17/08:00am 19.1 18.8 12.8 67 3.6 N 6 7 3 4 - - 0.0
17/07:30am 16.2 16.3 12.6 79 2.0 N 4 6 2 3 - - 0.0
17/07:29am 15.9 15.9 12.3 79 2.0 N 4 7 2 4 - - 0.0
17/07:00am 10.7 8.9 8.1 84 1.3 N 7 9 4 5 - - 0.0
17/06:30am 9.2 7.1 6.8 85 1.1 N 7 7 4 4 - - 0.0
17/06:00am 8.4 7.4 5.5 82 1.3 CALM 0 6 0 3 - - 0.0
17/05:30am 8.4 6.9 5.0 79 1.5 NW 2 7 1 4 - - 0.0
17/05:00am 9.0 7.5 5.2 77 1.7 W 2 7 1 4 - - 0.0
17/04:30am 10.1 8.2 6.8 80 1.6 WSW 6 9 3 5 - - 0.0
17/04:00am 9.3 7.0 5.7 78 1.6 SW 7 9 4 5 - - 0.0
17/03:30am 9.0 6.8 5.2 77 1.7 WSW 6 9 3 5 - - 0.0
17/03:00am 9.1 8.0 4.9 75 1.9 CALM 0 0 0 0 - - 0.0
17/02:30am 9.9 8.5 5.5 74 2.0 NW 2 7 1 4 - - 0.0
17/02:00am 10.9 9.3 6.5 74 2.1 NNW 4 11 2 6 - - 0.0
17/01:30am 10.7 8.6 5.9 72 2.2 SE 6 9 3 5 - - 0.0
17/01:00am 11.8 10.6 6.5 70 2.5 S 2 7 1 4 - - 0.0
17/12:30am 12.8 11.5 6.2 64 3.1 SSE 2 9 1 5 - - 0.0
17/12:00am 13.0 11.0 6.1 63 3.3 S 6 7 3 4 - - 0.0
 
Date/Time
EST
Temp
°C
App
Temp
°C
Dew
Point
°C
Rel
Hum
%
Delta-T
°C
Wind Press
QNH
hPa
Press
MSL
hPa
Rain since
9am
mm
Dir  Spd
km/h
Gust
km/h
Spd
kts
Gust
kts
16/11:30pm 13.8 12.5 6.2 60 3.6 ESE 2 7 1 4 - - 0.0
16/11:00pm 16.8 15.5 9.2 61 4.0 ESE 6 7 3 4 - - 0.0
16/10:30pm 15.8 14.5 7.8 59 4.0 NE 4 9 2 5 - - 0.0
16/10:00pm 16.3 14.5 8.0 58 4.2 SE 7 9 4 5 - - 0.0
16/09:30pm 18.6 18.2 8.3 51 5.3 CALM 0 6 0 3 - - 0.0
16/09:00pm 19.0 16.5 8.1 49 5.6 SE 11 13 6 7 - - 0.0
16/08:30pm 19.8 17.5 7.5 45 6.3 SE 9 13 5 7 - - 0.0
16/08:00pm 23.6 20.8 6.8 34 8.7 N 11 17 6 9 - - 0.0
16/07:30pm 23.1 20.1 6.0 33 8.7 N 11 13 6 7 - - 0.0
16/07:00pm 25.3 21.6 6.5 30 9.8 N 15 17 8 9 - - 0.0
16/06:30pm 25.8 22.4 5.9 28 10.3 NNW 13 17 7 9 - - 0.0
16/06:00pm 25.7 22.2 5.3 27 10.4 N 13 15 7 8 - - 0.0
16/05:30pm 29.3 25.0 5.4 22 12.5 NW 17 30 9 16 - - 0.0
16/05:00pm 30.6 25.9 5.1 20 13.4 NW 19 32 10 17 - - 0.0
16/04:30pm 31.5 26.2 5.1 19 13.9 WNW 22 43 12 23 - - 0.0
16/04:14pm 31.7 25.3 5.3 19 14.0 NW 28 48 15 26 - - 0.0
16/04:00pm 31.9 25.4 4.6 18 14.3 WNW 28 41 15 22 - - 0.0
16/03:30pm 32.3 27.1 5.7 19 14.2 WNW 22 33 12 18 - - 0.0
16/03:03pm 32.3 25.9 5.0 18 14.4 WNW 28 46 15 25 - - 0.0
16/03:00pm 32.6 26.7 6.0 19 14.3 WNW 26 39 14 21 - - 0.0
16/02:58pm 32.6 26.4 6.0 19 14.3 WNW 28 46 15 25 - - 0.0
16/02:30pm 32.8 27.6 5.4 18 14.6 WNW 22 33 12 18 - - 0.0
16/02:00pm 32.6 26.2 5.2 18 14.6 NW 28 44 15 24 - - 0.0
16/01:30pm 32.7 26.9 6.1 19 14.4 WNW 26 43 14 23 - - 0.0
16/01:00pm 32.9 27.3 7.0 20 14.2 WNW 26 41 14 22 - - 0.0
16/12:30pm 32.2 27.7 7.1 21 13.7 WNW 20 33 11 18 - - 0.0
16/12:00pm 29.2 27.4 9.3 29 11.1 ENE 9 13 5 7 - - 0.0
16/11:30am 27.6 25.9 8.5 30 10.4 NNE 7 13 4 7 - - 0.0
16/11:00am 26.2 24.3 9.1 34 9.4 ENE 9 11 5 6 - - 0.0
16/10:30am 23.5 22.0 9.1 40 7.8 ESE 7 11 4 6 - - 0.0
16/10:00am 21.3 19.6 8.2 43 6.9 E 7 11 4 6 - - 0.0
16/09:30am 18.8 16.8 7.3 47 5.8 NE 7 11 4 6 - - 0.0
16/09:00am 16.9 15.2 7.5 54 4.7 NE 6 7 3 4 - - 0.0
16/08:30am 13.9 12.0 6.7 62 3.5 WNW 6 9 3 5 - - 0.0
16/08:00am 11.9 9.7 6.2 68 2.7 WNW 7 9 4 5 - - 0.0
16/07:30am 9.7 7.0 5.5 75 1.9 W 9 11 5 6 - - 0.0
16/07:00am 7.1 4.5 4.2 82 1.3 W 7 11 4 6 - - 0.0
16/06:30am 5.9 3.1 3.4 84 1.1 WSW 7 9 4 5 - - 0.0
16/06:00am 6.5 3.3 3.3 80 1.3 W 9 13 5 7 - - 0.0
16/05:30am 6.9 3.9 4.0 82 1.2 W 9 11 5 6 - - 0.0
16/05:00am 6.4 3.5 2.7 77 1.5 W 7 9 4 5 - - 0.0
16/04:30am 7.3 3.8 3.5 77 1.6 W 11 13 6 7 - - 0.0
16/04:00am 7.8 4.4 3.8 76 1.7 W 11 13 6 7 - - 0.0
16/03:30am 7.6 4.6 4.0 78 1.6 WSW 9 11 5 6 - - 0.0
16/03:00am 7.6 4.5 3.6 76 1.7 W 9 11 5 6 - - 0.0
16/02:30am 7.5 4.5 4.1 79 1.5 W 9 11 5 6 - - 0.0
16/02:00am 7.6 4.6 4.0 78 1.6 W 9 11 5 6 - - 0.0
16/01:30am 8.5 5.9 4.1 74 1.9 W 7 9 4 5 - - 0.0
16/01:00am 8.6 5.9 3.6 71 2.2 W 7 7 4 4 - - 0.0
16/12:30am 10.1 7.1 4.3 67 2.6 W 9 11 5 6 - - 0.0
16/12:00am 10.6 7.7 4.5 66 2.7 WSW 9 11 5 6 - - 0.0
 
Date/Time
EST
Temp
°C
App
Temp
°C
Dew
Point
°C
Rel
Hum
%
Delta-T
°C
Wind Press
QNH
hPa
Press
MSL
hPa
Rain since
9am
mm
Dir  Spd
km/h
Gust
km/h
Spd
kts
Gust
kts
15/11:30pm 8.9 6.3 4.3 73 2.0 WSW 7 9 4 5 - - 0.0
15/11:00pm 9.3 6.7 3.3 66 2.6 W 6 7 3 4 - - 0.0
15/10:30pm 10.7 8.7 4.2 64 2.9 SSW 4 9 2 5 - - 0.0
15/10:00pm 11.9 9.8 3.7 57 3.7 SSW 4 7 2 4 - - 0.0
15/09:30pm 15.6 12.9 5.8 52 4.7 SE 9 15 5 8 - - 0.0
15/09:00pm 16.1 12.7 6.0 51 4.9 SE 13 15 7 8 - - 0.0
15/08:30pm 15.6 12.6 6.1 53 4.6 SE 11 13 6 7 - - 0.0
15/08:00pm 15.2 11.8 6.0 54 4.4 ESE 13 15 7 8 - - 0.0
15/07:30pm 15.0 12.5 4.7 50 4.8 ENE 7 7 4 4 - - 0.0
15/07:00pm 17.2 14.5 5.5 46 5.7 E 9 13 5 7 - - 0.0
15/06:30pm 20.3 17.0 6.6 41 6.9 ENE 13 17 7 9 - - 0.0
15/06:00pm 19.7 16.8 4.6 37 7.3 ENE 9 11 5 6 - - 0.0
15/05:30pm 21.5 18.7 5.0 34 8.2 ENE 9 11 5 6 - - 0.0
15/05:00pm 24.8 21.5 4.5 27 10.2 ENE 11 13 6 7 - - 0.0
15/04:30pm 26.8 23.4 4.0 23 11.5 ENE 11 17 6 9 - - 0.0
15/04:00pm 27.5 23.5 2.6 20 12.3 ENE 13 20 7 11 - - 0.0
15/03:30pm 28.2 23.9 3.1 20 12.5 ENE 15 20 8 11 - - 0.0

Latest Capital City Observations: Canberra | Sydney | Melbourne | Brisbane | Adelaide | Perth | Hobart | Darwin

Other Formats:

Comma delimited format used in spreadsheet applications
http://www.bom.gov.au/fwo/IDQ60901/IDQ60901.94562.axf

JavaScript Object Notation format (JSON) in row-major order
http://www.bom.gov.au/fwo/IDQ60901/IDQ60901.94562.json